Seavoyager — 9HUM8 — position and weather

sailwx.info

Track history (hours):
 
Tides and Currents Weather Stations Pressure Air Temp Water Temp Dewpoint Dewpoint Depression Visibility Wind Speed Wind Dir Waves Ship Positions

Seavoyager

Last reported at 2017-Aug-14 10:22 UTC. Time now 2017-Aug-18 04:40 UTC.
Position N 01°19' E 103°19'.

Length 273 m; draft 9.4 m.

Type: Tanker. MMSI: 256439000.

Date/timePositionNaut miles runAvg speedWind from/ knotsBaromVisibWave heightAir tempDewpointWater temp
2017-Aug-14 10:22N 01°19' E 103°19'410.9
2017-Aug-14 09:59N 01°17' E 103°22'510.4
2017-Aug-14 09:30N 01°14' E 103°27'510.2
2017-Aug-14 09:01N 01°13' E 103°32'510.2
2017-Aug-14 08:30N 01°12' E 103°37'510.5
2017-Aug-14 08:01N 01°09' E 103°41'611.7
2017-Aug-14 07:30N 01°10' E 103°47'713.1
2017-Aug-14 07:00N 01°13' E 103°53'2 2.3
2017-Aug-14 06:18N 01°15' E 103°54'0 0.0
2017-Aug-14 06:00N 01°15' E 103°54'0 0.0
2017-Aug-14 05:30N 01°15' E 103°54'0 0.1
2017-Aug-14 04:54N 01°15' E 103°54'0 0.2
2017-Aug-14 04:30N 01°15' E 103°54'0 0.0
2017-Aug-14 03:57N 01°15' E 103°54'0 0.0
2017-Aug-14 03:30N 01°15' E 103°54'0 0.0
2017-Aug-14 03:00N 01°15' E 103°54'0 0.0
2017-Aug-14 02:30N 01°15' E 103°54'0 0.1
2017-Aug-14 02:00N 01°15' E 103°54'0 0.0
2017-Aug-14 01:27N 01°15' E 103°54'0 0.0
2017-Aug-14 01:00N 01°15' E 103°54'0 0.0
2017-Aug-14 00:30N 01°15' E 103°54'0 0.1
2017-Aug-13 23:57N 01°15' E 103°54'0 0.1
2017-Aug-13 23:30N 01°15' E 103°54'0 0.0
2017-Aug-13 22:54N 01°15' E 103°54'0 0.1
2017-Aug-13 22:24N 01°15' E 103°54'0 0.0
2017-Aug-13 21:54N 01°15' E 103°54'0 0.1
2017-Aug-13 21:27N 01°15' E 103°54'0 0.0
2017-Aug-13 21:00N 01°15' E 103°54'0 0.0
2017-Aug-13 20:24N 01°15' E 103°54'0 0.0
2017-Aug-13 19:54N 01°15' E 103°54'0 0.0
2017-Aug-13 19:30N 01°15' E 103°54'0 0.1
2017-Aug-13 19:00N 01°15' E 103°54'0 0.0
2017-Aug-13 18:30N 01°15' E 103°54'0 0.0
2017-Aug-13 18:00N 01°15' E 103°54'0 0.1
2017-Aug-13 17:24N 01°15' E 103°54'0 0.2
2017-Aug-13 17:00N 01°15' E 103°54'0 0.0
2017-Aug-13 16:30N 01°15' E 103°54'0 0.0
2017-Aug-13 16:00N 01°15' E 103°54'0 0.0
2017-Aug-13 15:30N 01°15' E 103°54'0 0.1
2017-Aug-13 15:00N 01°15' E 103°54'0 0.0
2017-Aug-13 14:30N 01°15' E 103°54'0 0.0
2017-Aug-13 14:00N 01°15' E 103°54'0 0.1
2017-Aug-13 13:30N 01°15' E 103°54'0 0.0
2017-Aug-13 13:00N 01°15' E 103°54'0 0.0
2017-Aug-13 12:30N 01°15' E 103°54'0 0.0
2017-Aug-13 12:00N 01°15' E 103°54'1 1.7
2017-Aug-13 11:31N 01°15' E 103°54'3 5.7
2017-Aug-13 11:00N 01°15' E 103°57'713.1
2017-Aug-13 10:30N 01°16' E 104°04'  
2017-Aug-04 21:26N 29°51' E 123°06'510.2
2017-Aug-04 20:58N 29°56' E 123°06'2810.3
2017-Aug-04 18:18N 30°23' E 123°05'410.4
2017-Aug-04 17:57N 30°27' E 123°05'610.1
2017-Aug-04 17:19N 30°33' E 123°03'3 9.0
2017-Aug-04 16:58N 30°36' E 123°03'510.3
2017-Aug-04 16:30N 30°41' E 123°02'510.0
2017-Aug-04 16:00N 30°46' E 123°01'6 8.8
2017-Aug-04 15:23N 30°50' E 122°57'4 9.3
2017-Aug-04 14:56N 30°52' E 122°53'8 8.8
2017-Aug-04 14:00N 30°56' E 122°45'5 9.0
2017-Aug-04 13:30N 30°58' E 122°40'24 9.3
2017-Aug-04 10:54N 31°02' E 122°13'3 6.9
2017-Aug-04 10:28N 31°03' E 122°09'  
Track history (hours):
 
Tides and Currents Weather Stations Pressure Air Temp Water Temp Dewpoint Dewpoint Depression Visibility Wind Speed Wind Dir Waves Ship Positions

Seavoyager

Last reported at 2017-Aug-14 10:22 UTC. Time now 2017-Aug-18 04:40 UTC.
Position N 01°19' E 103°19'.

Length 273 m; draft 9.4 m.

Type: Tanker. MMSI: 256439000.

Date/timePositionNaut miles runAvg speedWind from/ knotsBaromVisibWave heightAir tempDewpointWater temp
2017-Aug-14 10:22N 01°19' E 103°19'410.9
2017-Aug-14 09:59N 01°17' E 103°22'510.4
2017-Aug-14 09:30N 01°14' E 103°27'510.2
2017-Aug-14 09:01N 01°13' E 103°32'510.2
2017-Aug-14 08:30N 01°12' E 103°37'510.5
2017-Aug-14 08:01N 01°09' E 103°41'611.7
2017-Aug-14 07:30N 01°10' E 103°47'713.1
2017-Aug-14 07:00N 01°13' E 103°53'2 2.3
2017-Aug-14 06:18N 01°15' E 103°54'0 0.0
2017-Aug-14 06:00N 01°15' E 103°54'0 0.0
2017-Aug-14 05:30N 01°15' E 103°54'0 0.1
2017-Aug-14 04:54N 01°15' E 103°54'0 0.2
2017-Aug-14 04:30N 01°15' E 103°54'0 0.0
2017-Aug-14 03:57N 01°15' E 103°54'0 0.0
2017-Aug-14 03:30N 01°15' E 103°54'0 0.0
2017-Aug-14 03:00N 01°15' E 103°54'0 0.0
2017-Aug-14 02:30N 01°15' E 103°54'0 0.1
2017-Aug-14 02:00N 01°15' E 103°54'0 0.0
2017-Aug-14 01:27N 01°15' E 103°54'0 0.0
2017-Aug-14 01:00N 01°15' E 103°54'0 0.0
2017-Aug-14 00:30N 01°15' E 103°54'0 0.1
2017-Aug-13 23:57N 01°15' E 103°54'0 0.1
2017-Aug-13 23:30N 01°15' E 103°54'0 0.0
2017-Aug-13 22:54N 01°15' E 103°54'0 0.1
2017-Aug-13 22:24N 01°15' E 103°54'0 0.0
2017-Aug-13 21:54N 01°15' E 103°54'0 0.1
2017-Aug-13 21:27N 01°15' E 103°54'0 0.0
2017-Aug-13 21:00N 01°15' E 103°54'0 0.0
2017-Aug-13 20:24N 01°15' E 103°54'0 0.0
2017-Aug-13 19:54N 01°15' E 103°54'0 0.0
2017-Aug-13 19:30N 01°15' E 103°54'0 0.1
2017-Aug-13 19:00N 01°15' E 103°54'0 0.0
2017-Aug-13 18:30N 01°15' E 103°54'0 0.0
2017-Aug-13 18:00N 01°15' E 103°54'0 0.1
2017-Aug-13 17:24N 01°15' E 103°54'0 0.2
2017-Aug-13 17:00N 01°15' E 103°54'0 0.0
2017-Aug-13 16:30N 01°15' E 103°54'0 0.0
2017-Aug-13 16:00N 01°15' E 103°54'0 0.0
2017-Aug-13 15:30N 01°15' E 103°54'0 0.1
2017-Aug-13 15:00N 01°15' E 103°54'0 0.0
2017-Aug-13 14:30N 01°15' E 103°54'0 0.0
2017-Aug-13 14:00N 01°15' E 103°54'0 0.1
2017-Aug-13 13:30N 01°15' E 103°54'0 0.0
2017-Aug-13 13:00N 01°15' E 103°54'0 0.0
2017-Aug-13 12:30N 01°15' E 103°54'0 0.0
2017-Aug-13 12:00N 01°15' E 103°54'1 1.7
2017-Aug-13 11:31N 01°15' E 103°54'3 5.7
2017-Aug-13 11:00N 01°15' E 103°57'713.1
2017-Aug-13 10:30N 01°16' E 104°04'  
2017-Aug-04 21:26N 29°51' E 123°06'510.2
2017-Aug-04 20:58N 29°56' E 123°06'2810.3
2017-Aug-04 18:18N 30°23' E 123°05'410.4
2017-Aug-04 17:57N 30°27' E 123°05'610.1
2017-Aug-04 17:19N 30°33' E 123°03'3 9.0
2017-Aug-04 16:58N 30°36' E 123°03'510.3
2017-Aug-04 16:30N 30°41' E 123°02'510.0
2017-Aug-04 16:00N 30°46' E 123°01'6 8.8
2017-Aug-04 15:23N 30°50' E 122°57'4 9.3
2017-Aug-04 14:56N 30°52' E 122°53'8 8.8
2017-Aug-04 14:00N 30°56' E 122°45'5 9.0
2017-Aug-04 13:30N 30°58' E 122°40'24 9.3
2017-Aug-04 10:54N 31°02' E 122°13'3 6.9
2017-Aug-04 10:28N 31°03' E 122°09'  

Dump ship's entire track history